Time;durP1;ratioP1;P1;durP2;ratioP2;P2;SDS_P1;SDS_P2;PMS_P1;PMS_P2;Temp;Humidity;BMP_temperature;BMP_pressure;BME280_temperature;BME280_humidity;BME280_pressure;Samples;Min_cycle;Max_cycle;Signal;HPM_P1;HPM_P2
2021/03/28 00:00:39;;;;;;;;;;;;;;;5.24;75.05;101740.28;4978283;28;20410;-75
2021/03/28 00:03:36;;;;;;;;;;;;;;;5.21;74.99;101737.97;4976171;28;20001;-75
2021/03/28 00:10:24;;;;;;;;;;;;;;;5.13;75.13;101725.34;4996193;28;19924;-75
2021/03/28 00:13:22;;;;;;;;;;;;;;;5.08;75.40;101723.28;4934829;29;20354;-76
2021/03/28 00:16:34;;;;;;;;;;;;;;;5.03;75.50;101728.63;4980192;28;19917;-76
2021/03/28 00:22:54;;;;;;;;;;;;;;;4.98;75.66;101720.19;5060275;28;20284;-76
2021/03/28 00:26:22;;;;;;;;;;;;;;;4.96;75.53;101732.50;5044109;28;19975;-76
2021/03/28 00:35:42;;;;;;;;;;;;;;;4.90;75.62;101717.72;4958178;28;19922;-75
2021/03/28 00:38:39;;;;;;;;;;;;;;;;;;;;;
2021/03/28 00:41:46;;;;;;;;;;;;;;;4.85;75.50;101712.94;4985611;28;20437;-76
2021/03/28 00:44:50;;;;;;;;;;;;;;;;;;;;;
2021/03/28 00:48:13;;;;;;;;;;;;;;;;;;;;;
2021/03/28 00:51:19;;;;;;;;;;;;;;;;;;;;;
2021/03/28 00:54:33;;;;;;;;;;;;;;;4.72;75.71;101709.47;4985481;28;19972;-76
2021/03/28 00:57:34;;;;;;;;;;;;;;;4.69;75.71;101710.75;4951386;28;19957;-77
2021/03/28 01:00:35;;;;;;;;;;;;;;;4.65;75.87;101693.00;4964763;28;19918;-76
2021/03/28 01:03:57;;;;;;;;;;;;;;;4.63;75.97;101684.13;4964385;28;19919;-76
2021/03/28 01:07:55;;;;;;;;;;;;;;;;;;;;;
2021/03/28 01:11:02;;;;;;;;;;;;;;;;;;;;;
2021/03/28 01:17:20;;;;;;;;;;;;;;;4.47;76.13;101663.53;4969744;28;19953;-76
2021/03/28 01:27:28;;;;;;;;;;;;;;;4.40;76.27;101657.22;4938212;28;19922;-76
2021/03/28 01:37:00;;;;;;;;;;;;;;;4.34;76.10;101675.47;4980176;28;20398;-76
2021/03/28 01:40:05;;;;;;;;;;;;;;;4.31;76.14;101686.09;4985284;28;19933;-76
2021/03/28 01:47:17;;;;;;;;;;;;;;;;;;;;;
2021/03/28 01:53:51;;;;;;;;;;;;;;;4.18;76.31;101692.53;4962238;28;19929;-76
2021/03/28 02:07:12;;;;;;;;;;;;;;;;;;;;;
2021/03/28 02:10:13;;;;;;;;;;;;;;;4.03;76.58;101673.59;4992395;28;19922;-76
2021/03/28 02:13:18;;;;;;;;;;;;;;;4.00;76.75;101671.31;5020220;28;19919;-76
2021/03/28 02:24:17;;;;;;;;;;;;;;;3.94;76.80;101664.78;4853386;29;19924;-76
2021/03/28 02:27:16;;;;;;;;;;;;;;;3.89;76.87;101666.53;4863525;29;19928;-76
2021/03/28 02:30:42;;;;;;;;;;;;;;;;;;;;;
2021/03/28 02:40:44;;;;;;;;;;;;;;;3.79;77.38;101667.84;4773188;29;19925;-76
2021/03/28 02:47:30;;;;;;;;;;;;;;;;;;;;;
2021/03/28 02:50:20;;;;;;;;;;;;;;;3.73;77.47;101684.38;4841595;29;19924;-76
2021/03/28 02:57:20;;;;;;;;;;;;;;;;;;;;;
2021/03/28 03:03:06;;;;;;;;;;;;;;;3.68;77.34;101686.94;4900824;29;19943;-76
2021/03/28 03:05:57;;;;;;;;;;;;;;;3.66;77.45;101689.91;4900810;29;20003;-76
2021/03/28 03:12:35;;;;;;;;;;;;;;;3.65;77.22;101704.72;4870328;29;19919;-76
2021/03/28 03:15:52;;;;;;;;;;;;;;;;;;;;;
2021/03/28 03:22:36;;;;;;;;;;;;;;;3.57;77.12;101707.72;4920593;29;20375;-76
2021/03/28 03:32:30;;;;;;;;;;;;;;;3.54;76.90;101709.00;4930948;29;19927;-76
2021/03/28 03:42:46;;;;;;;;;;;;;;;3.46;76.99;101720.22;4875671;29;20373;-76
2021/03/28 03:45:57;;;;;;;;;;;;;;;3.45;77.01;101723.16;4906077;29;19923;-76
2021/03/28 03:53:09;;;;;;;;;;;;;;;3.41;76.90;101731.00;4934698;28;20434;-76
2021/03/28 03:59:38;;;;;;;;;;;;;;;3.35;76.76;101724.47;4982477;28;19922;-76
2021/03/28 04:02:36;;;;;;;;;;;;;;;3.34;76.81;101730.16;4974507;28;19918;-75
2021/03/28 04:05:36;;;;;;;;;;;;;;;3.31;76.93;101725.94;4978251;28;20471;-76
2021/03/28 04:11:29;;;;;;;;;;;;;;;3.26;77.13;101728.53;4962970;28;19918;-76
2021/03/28 04:14:27;;;;;;;;;;;;;;;;;;;;;
2021/03/28 04:17:20;;;;;;;;;;;;;;;3.22;77.13;101719.03;4972767;28;20406;-75
2021/03/28 04:20:04;;;;;;;;;;;;;;;;;;;;;
2021/03/28 04:22:46;;;;;;;;;;;;;;;3.18;77.30;101720.53;4963942;28;19922;-76
2021/03/28 04:37:40;;;;;;;;;;;;;;;3.12;77.30;101729.59;5488808;22;20320;-77
2021/03/28 04:40:24;;;;;;;;;;;;;;;3.10;77.40;101735.31;5077528;28;19923;-77
2021/03/28 04:43:08;;;;;;;;;;;;;;;3.08;77.58;101726.44;5091604;28;19958;-77
2021/03/28 04:45:34;;;;;;;;;;;;;;;3.08;77.51;101720.97;5071748;28;19916;-77
2021/03/28 04:48:18;;;;;;;;;;;;;;;3.06;77.59;101733.22;5067026;28;19947;-77
2021/03/28 04:50:55;;;;;;;;;;;;;;;3.04;77.57;101741.69;5100268;28;19922;-77
2021/03/28 04:53:39;;;;;;;;;;;;;;;3.04;77.65;101735.34;5064627;28;19916;-77
2021/03/28 04:56:05;;;;;;;;;;;;;;;3.03;77.71;101733.63;5076886;28;19919;-77
2021/03/28 04:58:51;;;;;;;;;;;;;;;3.01;77.69;101736.63;5071118;28;20406;-77
2021/03/28 05:01:19;;;;;;;;;;;;;;;3.00;77.71;101742.31;5088957;28;19920;-77
2021/03/28 05:03:53;;;;;;;;;;;;;;;3.00;77.67;101745.06;5078968;28;19962;-77
2021/03/28 05:06:30;;;;;;;;;;;;;;;2.95;77.94;101737.44;5077975;28;19916;-77
2021/03/28 05:09:16;;;;;;;;;;;;;;;2.95;77.93;101737.44;5082102;28;19915;-77
2021/03/28 05:11:52;;;;;;;;;;;;;;;2.96;77.73;101735.56;5092048;28;19923;-76
2021/03/28 05:14:24;;;;;;;;;;;;;;;2.95;77.78;101731.13;5066439;28;19924;-77
2021/03/28 05:16:58;;;;;;;;;;;;;;;2.92;77.81;101729.63;5075282;28;19912;-77
2021/03/28 05:19:45;;;;;;;;;;;;;;;2.95;77.56;101736.59;5079161;28;19916;-78
2021/03/28 05:22:31;;;;;;;;;;;;;;;2.94;77.83;101730.28;5107049;28;19920;-77
2021/03/28 05:25:11;;;;;;;;;;;;;;;2.87;78.08;101729.44;5083557;28;19923;-77
2021/03/28 05:27:39;;;;;;;;;;;;;;;2.85;78.06;101728.81;5115377;28;20410;-77
2021/03/28 05:30:29;;;;;;;;;;;;;;;2.84;77.91;101728.00;5079376;28;19919;-77
2021/03/28 05:33:13;;;;;;;;;;;;;;;2.83;78.16;101740.00;5085692;28;19912;-77
2021/03/28 05:35:56;;;;;;;;;;;;;;;2.80;78.40;101734.94;5079875;28;19919;-78
2021/03/28 05:38:44;;;;;;;;;;;;;;;2.78;78.08;101731.56;5067915;28;19920;-77
2021/03/28 05:41:37;;;;;;;;;;;;;;;2.77;78.22;101738.13;5062837;28;20271;-77
2021/03/28 05:44:18;;;;;;;;;;;;;;;2.77;78.27;101742.75;5073359;28;20426;-77
2021/03/28 05:46:56;;;;;;;;;;;;;;;2.74;78.38;101744.03;5080616;28;19924;-77
2021/03/28 05:49:43;;;;;;;;;;;;;;;2.74;78.29;101751.41;5087142;28;20381;-77
2021/03/28 05:52:35;;;;;;;;;;;;;;;2.77;78.28;101754.56;5089408;28;19927;-78
2021/03/28 05:55:22;;;;;;;;;;;;;;;2.72;78.38;101751.63;5086760;28;19963;-78
2021/03/28 05:58:09;;;;;;;;;;;;;;;2.71;78.57;101751.84;5082819;28;20414;-77
2021/03/28 06:00:38;;;;;;;;;;;;;;;2.72;78.39;101754.38;5117234;28;19923;-77
2021/03/28 06:03:09;;;;;;;;;;;;;;;2.71;78.59;101758.16;5102644;28;19916;-79
2021/03/28 06:05:35;;;;;;;;;;;;;;;2.70;78.65;101753.72;5068850;28;19927;-77
2021/03/28 06:08:19;;;;;;;;;;;;;;;2.73;78.57;101758.81;5079711;28;19967;-79
2021/03/28 06:10:53;;;;;;;;;;;;;;;2.76;78.46;101755.63;5093915;28;19994;-79
2021/03/28 06:13:25;;;;;;;;;;;;;;;2.75;78.53;101748.44;5109101;28;20431;-77
2021/03/28 06:16:03;;;;;;;;;;;;;;;2.75;78.73;101756.69;5074569;28;19916;-77
2021/03/28 06:18:52;;;;;;;;;;;;;;;2.74;79.03;101751.41;5069874;28;19966;-78
2021/03/28 06:21:32;;;;;;;;;;;;;;;2.77;78.91;101751.84;5074815;28;20205;-78
2021/03/28 06:24:04;;;;;;;;;;;;;;;2.89;78.68;101744.63;5087783;28;19923;-77
2021/03/28 06:26:45;;;;;;;;;;;;;;;2.84;78.62;101752.69;5073900;28;20367;-78
2021/03/28 06:29:27;;;;;;;;;;;;;;;2.90;78.86;101751.81;5088932;28;19937;-77
2021/03/28 06:32:04;;;;;;;;;;;;;;;3.02;78.78;101748.44;5073279;28;19916;-76
2021/03/28 06:34:50;;;;;;;;;;;;;;;3.00;79.22;101739.56;5076571;28;20383;-76
2021/03/28 06:37:21;;;;;;;;;;;;;;;3.04;79.57;101751.81;5077916;28;19972;-77
2021/03/28 06:40:06;;;;;;;;;;;;;;;3.23;80.85;101752.81;5090063;28;19978;-77
2021/03/28 06:42:34;;;;;;;;;;;;;;;3.36;80.90;101739.88;5042754;28;19924;-77
2021/03/28 06:45:12;;;;;;;;;;;;;;;3.45;81.31;101748.72;5061655;28;20399;-76
2021/03/28 06:47:58;;;;;;;;;;;;;;;3.58;81.23;101754.19;5076738;28;19991;-76
2021/03/28 06:50:47;;;;;;;;;;;;;;;3.68;81.15;101763.88;5087515;28;20283;-76
2021/03/28 06:53:35;;;;;;;;;;;;;;;3.78;81.35;101754.09;5037220;28;19936;-77
2021/03/28 06:56:14;;;;;;;;;;;;;;;3.93;81.42;101756.56;5056492;28;19935;-77
2021/03/28 06:58:54;;;;;;;;;;;;;;;4.02;82.14;101755.25;5060884;28;19927;-77
2021/03/28 07:01:40;;;;;;;;;;;;;;;4.13;81.76;101753.69;5067349;28;19923;-77
2021/03/28 07:04:24;;;;;;;;;;;;;;;4.25;81.66;101749.16;5030633;28;19920;-77
2021/03/28 07:06:59;;;;;;;;;;;;;;;4.42;81.37;101754.13;5079576;28;19944;-77
2021/03/28 07:09:27;;;;;;;;;;;;;;;4.53;81.71;101758.06;5076532;28;19979;-77
2021/03/28 07:12:11;;;;;;;;;;;;;;;4.64;81.75;101760.94;5069229;28;20260;-77
2021/03/28 07:14:42;;;;;;;;;;;;;;;4.81;81.46;101758.47;5071102;28;19973;-77
2021/03/28 07:17:42;;;;;;;;;;;;;;;;;;;;;
2021/03/28 07:20:33;;;;;;;;;;;;;;;5.13;81.01;101767.50;5082535;28;20359;-77
2021/03/28 07:23:50;;;;;;;;;;;;;;;5.30;80.73;101764.16;5076155;28;19916;-77
2021/03/28 07:26:41;;;;;;;;;;;;;;;5.48;80.71;101757.78;5081184;28;19921;-76
2021/03/28 07:29:09;;;;;;;;;;;;;;;5.64;80.85;101761.84;5080986;28;19916;-76
2021/03/28 07:31:53;;;;;;;;;;;;;;;5.78;81.10;101778.00;5066448;28;20288;-76
2021/03/28 07:34:32;;;;;;;;;;;;;;;5.93;79.55;101777.63;5088096;28;19969;-76
2021/03/28 07:37:09;;;;;;;;;;;;;;;6.09;79.68;101778.91;5055616;28;19920;-76
2021/03/28 07:39:50;;;;;;;;;;;;;;;6.25;79.65;101791.19;5094777;28;19951;-76
2021/03/28 07:42:34;;;;;;;;;;;;;;;6.42;79.18;101783.09;5094858;28;20757;-76
2021/03/28 07:45:18;;;;;;;;;;;;;;;6.59;79.29;101786.03;5095631;28;19923;-76
2021/03/28 07:48:16;;;;;;;;;;;;;;;6.75;78.93;101781.75;5101808;28;19916;-76
2021/03/28 07:50:44;;;;;;;;;;;;;;;6.93;78.62;101776.94;5055379;28;19919;-76
2021/03/28 07:53:18;;;;;;;;;;;;;;;7.10;78.85;101790.03;5101816;28;19996;-76
2021/03/28 07:55:59;;;;;;;;;;;;;;;7.25;79.09;101781.28;5084055;28;19974;-76
2021/03/28 07:58:43;;;;;;;;;;;;;;;7.42;78.54;101786.94;5100197;28;19920;-76
2021/03/28 08:01:18;;;;;;;;;;;;;;;7.60;79.85;101781.22;5081029;28;19916;-76
2021/03/28 08:04:03;;;;;;;;;;;;;;;7.76;79.10;101782.41;5081593;28;19960;-76
2021/03/28 08:06:47;;;;;;;;;;;;;;;7.93;78.32;101783.31;5089557;28;20293;-76
2021/03/28 08:09:34;;;;;;;;;;;;;;;8.10;77.73;101786.16;5088395;28;19920;-76
2021/03/28 08:12:08;;;;;;;;;;;;;;;8.25;77.72;101778.16;5092258;28;19965;-76
2021/03/28 08:14:52;;;;;;;;;;;;;;;8.42;79.00;101786.53;5109840;28;20011;-76
2021/03/28 08:17:21;;;;;;;;;;;;;;;8.61;78.97;101787.16;5075078;28;19916;-76
2021/03/28 08:19:54;;;;;;;;;;;;;;;8.73;80.53;101782.38;5097104;28;19920;-78
2021/03/28 08:22:38;;;;;;;;;;;;;;;8.92;78.23;101788.50;5116287;28;19916;-73
2021/03/28 08:25:09;;;;;;;;;;;;;;;9.11;77.88;101797.41;5081397;28;19919;-73
2021/03/28 08:27:35;;;;;;;;;;;;;;;9.29;79.38;101792.69;5100834;28;19942;-73
2021/03/28 08:30:01;;;;;;;;;;;;;;;9.46;76.50;101787.94;5102244;28;19913;-72
2021/03/28 08:32:45;;;;;;;;;;;;;;;9.63;76.56;101785.94;5071127;28;20280;-78
2021/03/28 08:35:30;;;;;;;;;;;;;;;9.83;75.50;101787.31;5083529;28;20033;-78
2021/03/28 08:38:23;;;;;;;;;;;;;;;10.02;74.65;101797.00;5081117;28;19928;-79
2021/03/28 08:40:51;;;;;;;;;;;;;;;10.21;76.39;101799.44;5080128;28;19917;-79
2021/03/28 08:43:32;;;;;;;;;;;;;;;10.37;74.45;101797.72;5082898;28;20333;-79
2021/03/28 08:46:13;;;;;;;;;;;;;;;10.52;73.75;101792.31;5063270;28;20416;-79
2021/03/28 08:48:44;;;;;;;;;;;;;;;10.67;73.35;101791.59;5082423;28;19959;-79
2021/03/28 08:51:12;;;;;;;;;;;;;;;10.81;73.47;101804.00;5081735;28;19923;-80
2021/03/28 08:53:57;;;;;;;;;;;;;;;10.95;72.72;101793.28;5082297;28;19912;-79
2021/03/28 08:56:44;;;;;;;;;;;;;;;11.09;72.48;101777.81;5076813;28;20014;-72
2021/03/28 08:59:12;;;;;;;;;;;;;;;11.24;73.28;101790.97;5074364;28;19928;-77
2021/03/28 09:01:58;;;;;;;;;;;;;;;11.41;73.24;101791.63;5082008;28;19919;-79
2021/03/28 09:04:23;;;;;;;;;;;;;;;11.59;73.48;101767.28;5067702;28;19917;-79
2021/03/28 09:06:55;;;;;;;;;;;;;;;11.74;72.12;101766.50;5061634;28;19913;-79
2021/03/28 09:09:30;;;;;;;;;;;;;;;11.90;71.19;101775.81;5080832;28;20038;-79
2021/03/28 09:11:55;;;;;;;;;;;;;;;12.07;71.78;101779.19;5085743;28;19919;-79
2021/03/28 09:14:33;;;;;;;;;;;;;;;12.21;73.07;101772.00;5068079;28;19931;-81
2021/03/28 09:17:10;;;;;;;;;;;;;;;12.36;70.89;101770.34;5071226;28;19927;-79
2021/03/28 09:19:48;;;;;;;;;;;;;;;12.52;71.21;101783.22;5064980;28;19947;-79
2021/03/28 09:22:32;;;;;;;;;;;;;;;12.67;71.18;101791.56;5083185;28;19912;-78
2021/03/28 09:25:04;;;;;;;;;;;;;;;12.83;69.36;101794.38;5060749;28;19916;-78
2021/03/28 09:27:50;;;;;;;;;;;;;;;12.95;69.46;101797.72;5077521;28;19912;-78
2021/03/28 09:30:25;;;;;;;;;;;;;;;13.10;68.49;101794.13;5063055;28;19920;-78
2021/03/28 09:33:09;;;;;;;;;;;;;;;13.23;68.91;101798.28;5064657;28;20011;-78
2021/03/28 09:35:35;;;;;;;;;;;;;;;13.38;67.54;101801.09;5081264;28;20386;-78
2021/03/28 09:38:03;;;;;;;;;;;;;;;13.48;67.44;101806.63;5095459;28;19973;-78
2021/03/28 09:40:31;;;;;;;;;;;;;;;13.60;67.41;101800.75;5105498;28;20000;-78
2021/03/28 09:43:06;;;;;;;;;;;;;;;13.71;67.28;101799.63;5083033;28;19916;-78
2021/03/28 09:45:40;;;;;;;;;;;;;;;13.79;67.72;101798.16;5094531;28;20354;-78
2021/03/28 09:48:24;;;;;;;;;;;;;;;13.87;67.95;101814.34;5065988;28;19924;-79
2021/03/28 09:50:58;;;;;;;;;;;;;;;13.94;66.70;101798.13;5099956;28;20323;-78
2021/03/28 09:53:42;;;;;;;;;;;;;;;13.97;66.24;101791.13;5111981;28;19919;-78
2021/03/28 09:56:26;;;;;;;;;;;;;;;14.02;66.29;101803.13;5101164;28;19923;-78
2021/03/28 09:58:52;;;;;;;;;;;;;;;14.06;66.57;101800.59;5083525;28;19924;-78
2021/03/28 10:01:21;;;;;;;;;;;;;;;14.09;66.48;101800.00;5117254;28;19916;-78
2021/03/28 10:03:54;;;;;;;;;;;;;;;14.13;66.51;101795.53;5084362;28;19922;-79
2021/03/28 10:06:20;;;;;;;;;;;;;;;14.16;66.02;101786.56;5069590;28;19915;-78
2021/03/28 10:08:47;;;;;;;;;;;;;;;14.22;67.30;101788.22;5092946;28;19916;-78
2021/03/28 10:11:24;;;;;;;;;;;;;;;14.33;67.58;101800.19;5084489;28;19951;-78
2021/03/28 10:13:56;;;;;;;;;;;;;;;14.40;67.00;101789.53;5086806;28;19981;-79
2021/03/28 10:16:25;;;;;;;;;;;;;;;14.47;66.45;101795.63;5091072;28;20418;-78
2021/03/28 10:18:54;;;;;;;;;;;;;;;14.52;66.19;101795.63;5098327;28;20003;-78
2021/03/28 10:21:38;;;;;;;;;;;;;;;14.58;65.74;101795.59;5109730;28;19994;-79
2021/03/28 10:24:22;;;;;;;;;;;;;;;14.67;66.31;101791.03;5110047;28;19954;-79
2021/03/28 10:26:49;;;;;;;;;;;;;;;14.77;65.76;101792.94;5082600;28;19924;-78
2021/03/28 10:29:41;;;;;;;;;;;;;;;14.83;65.59;101792.59;5079322;28;19927;-78
2021/03/28 10:32:11;;;;;;;;;;;;;;;14.95;65.21;101783.81;5087512;28;19916;-78
2021/03/28 10:34:59;;;;;;;;;;;;;;;15.06;65.65;101791.00;5089654;28;20283;-78
2021/03/28 10:37:40;;;;;;;;;;;;;;;15.16;66.38;101787.28;5099711;28;19920;-78
2021/03/28 10:40:19;;;;;;;;;;;;;;;15.26;64.87;101783.56;5084247;28;19981;-79
2021/03/28 10:43:03;;;;;;;;;;;;;;;15.36;64.72;101777.88;5057915;28;20264;-79
2021/03/28 10:45:31;;;;;;;;;;;;;;;15.42;65.42;101783.09;5108379;28;19923;-79
2021/03/28 10:48:32;;;;;;;;;;;;;;;15.51;65.02;101786.09;5108629;28;19912;-79
2021/03/28 10:51:15;;;;;;;;;;;;;;;15.62;64.74;101772.81;5048429;28;19921;-80
2021/03/28 10:53:40;;;;;;;;;;;;;;;15.71;64.49;101779.47;5101514;28;20282;-74
2021/03/28 10:56:25;;;;;;;;;;;;;;;15.83;65.37;101771.47;5094372;28;19999;-74
2021/03/28 10:58:58;;;;;;;;;;;;;;;16.05;65.82;101772.88;5097611;28;19916;-81
2021/03/28 11:01:33;;;;;;;;;;;;;;;16.25;64.06;101767.00;5080469;28;19916;-78
2021/03/28 11:04:01;;;;;;;;;;;;;;;16.30;63.48;101771.72;5109575;28;19946;-80
2021/03/28 11:06:47;;;;;;;;;;;;;;;16.33;62.67;101773.91;5078489;28;19916;-79
2021/03/28 11:09:31;;;;;;;;;;;;;;;16.28;62.35;101780.41;5083490;28;19919;-79
2021/03/28 11:12:00;;;;;;;;;;;;;;;16.27;61.59;101780.72;5087603;28;19922;-79
2021/03/28 11:14:45;;;;;;;;;;;;;;;16.18;61.23;101771.28;5084627;28;20355;-79
2021/03/28 11:17:19;;;;;;;;;;;;;;;16.11;61.52;101782.88;5102630;28;19995;-79
2021/03/28 11:19:57;;;;;;;;;;;;;;;16.37;61.10;101771.31;5086949;28;19920;-79
2021/03/28 11:22:35;;;;;;;;;;;;;;;16.54;62.19;101774.41;5089729;28;19916;-79
2021/03/28 11:25:04;;;;;;;;;;;;;;;16.73;60.81;101782.81;5064840;28;19915;-79
2021/03/28 11:27:29;;;;;;;;;;;;;;;16.89;61.27;101775.03;5068548;28;19916;-80
2021/03/28 11:30:04;;;;;;;;;;;;;;;17.04;61.25;101783.19;5088091;28;19929;-77
2021/03/28 11:32:48;;;;;;;;;;;;;;;17.15;60.86;101770.63;5100375;28;19915;-77
2021/03/28 11:35:16;;;;;;;;;;;;;;;17.20;59.95;101770.53;5097582;28;19962;-78
2021/03/28 11:37:45;;;;;;;;;;;;;;;17.34;61.48;101776.19;5053963;28;19924;-79
2021/03/28 11:40:29;;;;;;;;;;;;;;;17.45;61.71;101776.81;5083226;28;19967;-80
2021/03/28 11:43:01;;;;;;;;;;;;;;;17.58;60.87;101772.38;5085091;28;20412;-78
2021/03/28 11:45:44;;;;;;;;;;;;;;;17.68;60.46;101769.34;5082301;28;20311;-79
2021/03/28 11:48:22;;;;;;;;;;;;;;;17.81;59.45;101764.91;5072356;28;20273;-79
2021/03/28 11:50:50;;;;;;;;;;;;;;;17.87;58.54;101774.91;5078223;28;20023;-80
2021/03/28 11:53:24;;;;;;;;;;;;;;;17.95;58.77;101771.38;5076268;28;19919;-80
2021/03/28 11:55:54;;;;;;;;;;;;;;;18.01;59.02;101767.28;5067500;28;19916;-80
2021/03/28 11:58:20;;;;;;;;;;;;;;;18.12;59.59;101767.06;5081866;28;20383;-80
2021/03/28 12:00:57;;;;;;;;;;;;;;;18.22;58.46;101766.81;5079171;28;19927;-80
2021/03/28 12:03:36;;;;;;;;;;;;;;;18.27;58.52;101767.53;5074359;28;19961;-80
2021/03/28 12:06:11;;;;;;;;;;;;;;;18.40;57.74;101767.84;5060176;28;19919;-78
2021/03/28 12:08:54;;;;;;;;;;;;;;;18.45;58.08;101767.72;5111588;28;19994;-78
2021/03/28 12:11:29;;;;;;;;;;;;;;;18.50;57.08;101757.19;5082794;28;20283;-73
2021/03/28 12:13:54;;;;;;;;;;;;;;;18.57;57.07;101753.94;5099952;28;19924;-73
2021/03/28 12:16:19;;;;;;;;;;;;;;;18.61;57.10;101751.31;5071604;28;20002;-72
2021/03/28 12:18:46;;;;;;;;;;;;;;;18.69;57.92;101747.72;5103575;28;19915;-73
2021/03/28 12:21:11;;;;;;;;;;;;;;;18.71;56.12;101740.63;5104526;28;20399;-77
2021/03/28 12:23:40;;;;;;;;;;;;;;;18.76;56.91;101739.72;5091055;28;19955;-77
2021/03/28 12:26:29;;;;;;;;;;;;;;;18.79;56.26;101739.06;5077715;28;19920;-80
2021/03/28 12:29:20;;;;;;;;;;;;;;;;;;;;;
2021/03/28 12:32:35;;;;;;;;;;;;;;;18.91;55.79;101718.78;5039709;28;19923;-80
2021/03/28 12:35:15;;;;;;;;;;;;;;;18.95;55.21;101723.47;5021253;28;20000;-80
2021/03/28 12:37:57;;;;;;;;;;;;;;;18.97;55.85;101714.66;5016916;28;19924;-80
2021/03/28 12:40:27;;;;;;;;;;;;;;;19.00;55.52;101713.19;5016246;28;19984;-72
2021/03/28 12:42:52;;;;;;;;;;;;;;;19.05;56.01;101710.25;4996891;28;19929;-73
2021/03/28 12:45:18;;;;;;;;;;;;;;;19.05;54.89;101715.88;5030391;28;19917;-73
2021/03/28 12:47:49;;;;;;;;;;;;;;;19.06;54.54;101711.94;5017907;28;19923;-73
2021/03/28 12:50:14;;;;;;;;;;;;;;;19.08;54.63;101718.06;5019513;28;19913;-73
2021/03/28 12:52:53;;;;;;;;;;;;;;;19.10;54.86;101707.31;5014483;28;19923;-73
2021/03/28 12:55:24;;;;;;;;;;;;;;;19.15;55.23;101713.63;4998558;28;19917;-73
2021/03/28 12:57:49;;;;;;;;;;;;;;;19.21;55.77;101717.13;5020052;28;20102;-73
2021/03/28 13:00:16;;;;;;;;;;;;;;;19.24;55.87;101713.66;5028829;28;20000;-73
2021/03/28 13:02:41;;;;;;;;;;;;;;;19.30;54.78;101708.72;5031455;28;20008;-72
2021/03/28 13:05:16;;;;;;;;;;;;;;;19.37;55.68;101695.03;5084927;28;19962;-73
2021/03/28 13:07:44;;;;;;;;;;;;;;;19.39;53.80;101707.63;5087526;28;20075;-73
2021/03/28 13:10:19;;;;;;;;;;;;;;;19.41;54.36;101701.66;5106007;28;19912;-72
2021/03/28 13:12:44;;;;;;;;;;;;;;;19.40;54.21;101703.63;5105443;28;20290;-72
2021/03/28 13:15:30;;;;;;;;;;;;;;;19.41;53.40;101701.66;5084797;28;19919;-73
2021/03/28 13:18:03;;;;;;;;;;;;;;;19.41;53.51;101690.38;5104216;28;20003;-73
2021/03/28 13:20:36;;;;;;;;;;;;;;;19.41;53.54;101696.84;5102757;28;20334;-73
2021/03/28 13:23:05;;;;;;;;;;;;;;;19.40;54.38;101692.38;5082085;28;20286;-73
2021/03/28 13:25:31;;;;;;;;;;;;;;;19.41;54.65;101685.56;5060682;28;19916;-73
2021/03/28 13:27:59;;;;;;;;;;;;;;;19.42;54.48;101689.25;5085480;28;19920;-73
2021/03/28 13:30:29;;;;;;;;;;;;;;;19.42;54.56;101680.78;5088753;28;19916;-73
2021/03/28 13:32:54;;;;;;;;;;;;;;;19.47;55.12;101682.63;5070124;28;20269;-73
2021/03/28 13:35:20;;;;;;;;;;;;;;;19.49;55.04;101680.31;5080938;28;20002;-73
2021/03/28 13:37:54;;;;;;;;;;;;;;;19.42;53.37;101677.97;5078131;28;19928;-73
2021/03/28 13:40:49;;;;;;;;;;;;;;;19.43;53.65;101676.81;5068603;28;20350;-73
2021/03/28 13:43:20;;;;;;;;;;;;;;;19.41;52.12;101679.94;5076120;28;19920;-73
2021/03/28 13:45:45;;;;;;;;;;;;;;;19.42;54.20;101681.63;5065468;28;19912;-72
2021/03/28 13:48:11;;;;;;;;;;;;;;;19.39;53.79;101671.00;5086142;28;19927;-73
2021/03/28 13:50:57;;;;;;;;;;;;;;;19.43;54.07;101668.34;5081023;28;19916;-73
2021/03/28 13:53:25;;;;;;;;;;;;;;;19.43;54.39;101669.19;5079420;28;19927;-73
2021/03/28 13:56:09;;;;;;;;;;;;;;;19.41;53.79;101674.31;5078202;28;19923;-72
2021/03/28 13:58:37;;;;;;;;;;;;;;;19.40;54.37;101669.84;5081587;28;19924;-73
2021/03/28 14:01:06;;;;;;;;;;;;;;;19.39;52.97;101671.00;5084289;28;19927;-73
2021/03/28 14:03:33;;;;;;;;;;;;;;;19.43;54.63;101671.19;5091389;28;19916;-73
2021/03/28 14:05:59;;;;;;;;;;;;;;;19.50;55.31;101670.69;5082086;28;19932;-73
2021/03/28 14:08:25;;;;;;;;;;;;;;;19.52;53.14;101669.19;5070043;28;19958;-73
2021/03/28 14:10:52;;;;;;;;;;;;;;;19.59;55.67;101668.75;5083779;28;20369;-72
2021/03/28 14:13:22;;;;;;;;;;;;;;;19.61;55.25;101670.09;5081260;28;20491;-73
2021/03/28 14:15:59;;;;;;;;;;;;;;;19.64;54.69;101666.59;5075823;28;19916;-73
2021/03/28 14:18:29;;;;;;;;;;;;;;;19.61;54.84;101672.03;5092766;28;19923;-73
2021/03/28 14:21:13;;;;;;;;;;;;;;;19.61;53.65;101666.41;5065860;28;19928;-73
2021/03/28 14:23:46;;;;;;;;;;;;;;;19.60;55.05;101662.75;5091448;28;20392;-73
2021/03/28 14:26:11;;;;;;;;;;;;;;;19.63;54.51;101658.47;5073028;28;20359;-73
2021/03/28 14:28:43;;;;;;;;;;;;;;;19.63;53.55;101662.09;5087407;28;19971;-73
2021/03/28 14:31:09;;;;;;;;;;;;;;;19.60;53.89;101653.50;5088548;28;20291;-72
2021/03/28 14:33:53;;;;;;;;;;;;;;;19.61;52.84;101646.69;5078659;28;19919;-73
2021/03/28 14:36:21;;;;;;;;;;;;;;;19.62;54.10;101651.19;5081159;28;20343;-73
2021/03/28 14:39:07;;;;;;;;;;;;;;;19.59;53.75;101649.03;5076551;28;19927;-73
2021/03/28 14:41:38;;;;;;;;;;;;;;;19.57;54.41;101648.50;5078599;28;19927;-73
2021/03/28 14:44:16;;;;;;;;;;;;;;;19.52;53.53;101648.66;5080231;28;19959;-73
2021/03/28 14:46:48;;;;;;;;;;;;;;;19.49;54.90;101646.50;5082405;28;19916;-73
2021/03/28 14:49:20;;;;;;;;;;;;;;;19.45;54.59;101645.50;5079824;28;19923;-73
2021/03/28 14:51:48;;;;;;;;;;;;;;;19.40;54.40;101638.03;5087716;28;19913;-80
2021/03/28 14:54:29;;;;;;;;;;;;;;;19.34;54.03;101642.16;5067086;28;19917;-75
2021/03/28 14:56:54;;;;;;;;;;;;;;;19.24;53.06;101636.81;5079333;28;19923;-75
2021/03/28 14:59:29;;;;;;;;;;;;;;;19.13;53.28;101648.34;5057599;28;19916;-76
2021/03/28 15:02:09;;;;;;;;;;;;;;;19.10;54.31;101639.72;5077386;28;19916;-76
2021/03/28 15:04:38;;;;;;;;;;;;;;;18.98;55.04;101652.44;5075123;28;19917;-75
2021/03/28 15:07:24;;;;;;;;;;;;;;;18.91;54.81;101652.06;5081028;28;19916;-76
2021/03/28 15:09:52;;;;;;;;;;;;;;;18.80;54.73;101647.84;5076617;28;19956;-74
2021/03/28 15:12:19;;;;;;;;;;;;;;;18.73;55.58;101639.03;5087230;28;20269;-75
2021/03/28 15:14:48;;;;;;;;;;;;;;;18.69;55.46;101652.06;5070189;28;19928;-74
2021/03/28 15:17:36;;;;;;;;;;;;;;;18.61;55.59;101653.69;5088361;28;19920;-75
2021/03/28 15:20:07;;;;;;;;;;;;;;;18.57;55.09;101647.03;5054445;28;19920;-73
2021/03/28 15:22:37;;;;;;;;;;;;;;;18.54;55.31;101648.50;5078277;28;19925;-75
2021/03/28 15:25:16;;;;;;;;;;;;;;;18.48;54.86;101646.97;5076520;28;19917;-76
2021/03/28 15:27:44;;;;;;;;;;;;;;;18.43;55.77;101647.09;5066334;28;19919;-79
2021/03/28 15:30:41;;;;;;;;;;;;;;;;;;;;;
2021/03/28 15:33:06;;;;;;;;;;;;;;;18.34;56.42;101646.22;5061082;28;20007;-79
2021/03/28 15:35:47;;;;;;;;;;;;;;;18.38;55.96;101647.22;5076542;28;19952;-79
2021/03/28 15:38:25;;;;;;;;;;;;;;;18.38;55.58;101646.38;5046472;28;20428;-79
2021/03/28 15:41:09;;;;;;;;;;;;;;;18.40;55.13;101644.09;5065235;28;20003;-79
2021/03/28 15:43:40;;;;;;;;;;;;;;;18.41;55.55;101652.19;5088473;28;20268;-79
2021/03/28 15:46:09;;;;;;;;;;;;;;;18.41;54.18;101638.13;5084620;28;19928;-79
2021/03/28 15:48:47;;;;;;;;;;;;;;;18.41;55.30;101635.31;5070678;28;19916;-79
2021/03/28 15:51:21;;;;;;;;;;;;;;;18.39;55.51;101642.44;5072299;28;19920;-79
2021/03/28 15:54:03;;;;;;;;;;;;;;;18.38;55.48;101641.59;5058614;28;19936;-79
2021/03/28 15:56:49;;;;;;;;;;;;;;;18.34;54.64;101651.00;5074707;28;19916;-80
2021/03/28 15:59:29;;;;;;;;;;;;;;;18.30;53.84;101646.03;5040254;28;19991;-79
2021/03/28 16:02:14;;;;;;;;;;;;;;;18.24;54.27;101644.47;5073775;28;20360;-79
2021/03/28 16:04:44;;;;;;;;;;;;;;;18.21;55.61;101647.09;5060219;28;19912;-79
2021/03/28 16:07:16;;;;;;;;;;;;;;;18.15;55.35;101648.38;5055069;28;19992;-79
2021/03/28 16:09:44;;;;;;;;;;;;;;;18.10;55.02;101629.63;5061489;28;19920;-79